Time;durP1;ratioP1;P1;durP2;ratioP2;P2;SDS_P1;SDS_P2;PMS_P1;PMS_P2;Temp;Humidity;BMP_temperature;BMP_pressure;BME280_temperature;BME280_humidity;BME280_pressure;Samples;Min_cycle;Max_cycle;Signal;HPM_P1;HPM_P2
2022/12/15 05:33:55;;;;;;;19.50;7.00;;;;;;;10.14;74.20;100146.34;106111;1304;21955;-60
2022/12/15 05:36:21;;;;;;;14.60;6.30;;;;;;;10.11;74.16;100148.69;106182;1306;23475;-60
2022/12/15 05:38:50;;;;;;;20.40;8.20;;;;;;;10.10;74.02;100146.40;106215;1306;21997;-60
2022/12/15 05:41:17;;;;;;;20.80;7.60;;;;;;;10.16;73.58;100146.84;106190;1302;21962;-61
2022/12/15 05:43:43;;;;;;;23.40;8.30;;;;;;;10.11;73.68;100144.11;106092;1306;21973;-59
2022/12/15 05:46:11;;;;;;;24.90;8.20;;;;;;;10.09;73.71;100134.84;105956;1304;21962;-62
2022/12/15 05:48:36;;;;;;;29.80;9.00;;;;;;;10.08;73.43;100130.30;106027;1306;21969;-62
2022/12/15 05:51:07;;;;;;;26.50;9.20;;;;;;;10.08;73.30;100125.90;105931;1306;21963;-59
2022/12/15 05:53:34;;;;;;;20.10;8.30;;;;;;;10.08;73.25;100122.75;106052;1306;21980;-60
2022/12/15 05:56:02;;;;;;;24.00;9.50;;;;;;;10.10;73.22;100129.92;105991;1306;22020;-63
2022/12/15 05:58:31;;;;;;;23.00;8.60;;;;;;;10.14;73.11;100123.20;106018;1306;21950;-60
2022/12/15 06:01:08;;;;;;;21.40;7.50;;;;;;;10.24;72.71;100115.16;106053;1306;22007;-63
2022/12/15 06:03:34;;;;;;;23.20;7.50;;;;;;;10.23;72.66;100119.56;106116;1301;21962;-63
2022/12/15 06:06:01;;;;;;;18.50;7.90;;;;;;;10.22;72.64;100121.48;106064;1296;21957;-59
2022/12/15 06:08:32;;;;;;;16.30;6.30;;;;;;;10.21;72.57;100116.23;106036;1306;21972;-61
2022/12/15 06:10:57;;;;;;;23.50;7.00;;;;;;;10.20;72.55;100108.55;105993;1304;22081;-61
2022/12/15 06:13:27;;;;;;;19.90;6.70;;;;;;;10.20;72.67;100104.70;106129;1304;21955;-61
2022/12/15 06:15:59;;;;;;;16.30;6.80;;;;;;;10.21;72.59;100107.15;106013;1304;21955;-59
2022/12/15 06:18:28;;;;;;;14.80;6.00;;;;;;;10.24;72.50;100104.98;105824;1306;22798;-61
2022/12/15 06:20:58;;;;;;;13.10;6.60;;;;;;;10.28;72.46;100103.52;105886;1305;23690;-62
2022/12/15 06:23:24;;;;;;;19.40;6.70;;;;;;;10.34;72.20;100108.18;105910;1306;21956;-59
2022/12/15 06:25:50;;;;;;;11.20;5.70;;;;;;;10.23;72.60;100108.86;105839;1301;21968;-61
2022/12/15 06:28:22;;;;;;;18.00;7.50;;;;;;;10.26;72.76;100109.70;105839;1306;21955;-62
2022/12/15 06:30:52;;;;;;;15.20;7.50;;;;;;;10.33;72.34;100109.95;105909;1296;21951;-60
2022/12/15 06:33:19;;;;;;;11.80;6.80;;;;;;;10.16;72.73;100113.36;105886;1306;21945;-59
2022/12/15 06:35:44;;;;;;;18.60;6.80;;;;;;;10.17;72.81;100112.98;105879;1306;22525;-59
2022/12/15 06:38:10;;;;;;;14.20;6.90;;;;;;;10.20;72.77;100114.17;105826;1303;22001;-59
2022/12/15 06:40:37;;;;;;;13.70;6.90;;;;;;;10.20;72.57;100116.09;105977;1298;21951;-60
2022/12/15 06:43:03;;;;;;;15.00;6.90;;;;;;;10.26;72.37;100116.55;105855;1306;21963;-60
2022/12/15 06:45:29;;;;;;;12.70;7.40;;;;;;;10.28;72.52;100114.41;106036;1306;21974;-61
2022/12/15 06:47:55;;;;;;;14.20;6.70;;;;;;;10.21;72.62;100115.73;105972;1300;21970;-61
2022/12/15 06:50:21;;;;;;;12.80;5.80;;;;;;;10.28;72.50;100109.67;105710;1306;21963;-61
2022/12/15 10:14:06;;;;;;;24.30;14.90;;;;;;;5.30;100.00;99980.58;105233;1309;548234;-65
2022/12/15 10:16:46;;;;;;;28.60;14.10;;;;;;;7.82;93.82;99958.75;105378;1310;21976;-73
2022/12/15 10:19:15;;;;;;;27.90;15.40;;;;;;;8.26;87.16;99952.11;105342;1312;23174;-65
2022/12/15 10:21:41;;;;;;;30.60;16.10;;;;;;;8.58;83.99;99949.36;105305;1312;23924;-66
2022/12/15 10:24:18;;;;;;;25.90;14.60;;;;;;;8.72;82.35;99952.02;105444;1312;21981;-74
2022/12/15 10:26:52;;;;;;;24.60;14.00;;;;;;;8.87;81.38;99957.25;105479;1310;225739;-65
2022/12/15 10:29:28;;;;;;;21.20;12.60;;;;;;;9.00;80.55;99960.95;105615;1309;21988;-67
2022/12/15 10:31:57;;;;;;;19.50;11.70;;;;;;;9.10;79.88;99958.38;105531;1309;21983;-77
2022/12/15 10:34:25;;;;;;;20.70;9.70;;;;;;;9.26;79.10;99961.48;105403;1309;21970;-66
2022/12/15 10:36:54;;;;;;;13.90;8.80;;;;;;;9.34;78.45;99966.45;105706;1309;23718;-67
2022/12/15 10:39:22;;;;;;;17.40;9.00;;;;;;;9.41;77.89;99963.20;105722;1309;23618;-66
2022/12/15 10:42:10;;;;;;;16.70;8.40;;;;;;;9.51;77.44;99956.41;105698;1309;23634;-65
2022/12/15 10:44:42;;;;;;;17.50;8.80;;;;;;;9.61;76.91;99951.01;105693;1308;22842;-73
2022/12/15 10:47:27;;;;;;;16.00;9.20;;;;;;;9.68;76.52;99949.49;105522;1311;22749;-69
2022/12/15 10:49:54;;;;;;;15.60;7.80;;;;;;;9.75;76.13;99946.60;105600;1304;21968;-70
2022/12/15 10:52:30;;;;;;;11.60;7.20;;;;;;;9.68;75.85;99947.94;105632;1305;22160;-64
2022/12/15 10:54:56;;;;;;;12.80;7.90;;;;;;;9.66;75.84;99947.43;105667;1309;21987;-64
2022/12/15 10:57:27;;;;;;;13.50;8.00;;;;;;;9.76;75.42;99945.00;105757;1309;22439;-66
2022/12/15 11:00:27;;;;;;;11.70;6.70;;;;;;;9.85;74.67;99943.98;105631;1309;21988;-65
2022/12/15 11:02:53;;;;;;;13.30;6.90;;;;;;;9.83;74.33;99942.25;105633;1306;23084;-67
2022/12/15 11:05:19;;;;;;;12.20;7.10;;;;;;;9.86;74.07;99936.96;105699;1309;21969;-65
2022/12/15 11:07:50;;;;;;;12.20;7.30;;;;;;;9.75;74.20;99933.45;105685;1301;21970;-68
2022/12/15 11:12:50;;;;;;;14.80;8.00;;;;;;;9.69;74.42;99931.09;105677;1309;21968;-65
2022/12/15 11:13:15;;;;;;;17.60;7.80;;;;;;;9.70;74.20;99926.52;105656;1308;21981;-63
2022/12/15 11:15:44;;;;;;;15.30;8.00;;;;;;;9.71;73.94;99925.28;105707;1309;21976;-67
2022/12/15 11:18:12;;;;;;;16.20;7.20;;;;;;;9.74;73.88;99924.54;105696;1308;23098;-64
2022/12/15 11:20:40;;;;;;;12.70;8.40;;;;;;;9.76;73.86;99922.39;105723;1309;21965;-68
2022/12/15 11:23:18;;;;;;;14.40;7.80;;;;;;;9.77;73.67;99917.81;105732;1309;23770;-63
2022/12/15 11:25:48;;;;;;;15.60;7.60;;;;;;;9.79;73.63;99920.59;105693;1307;21967;-69
2022/12/15 11:28:19;;;;;;;12.50;8.00;;;;;;;9.84;73.61;99921.56;105694;1299;23810;-69
2022/12/15 11:30:49;;;;;;;11.80;8.00;;;;;;;9.88;73.40;99921.34;105698;1309;21980;-67
2022/12/15 11:33:15;;;;;;;12.70;7.70;;;;;;;9.80;73.43;99919.52;105655;1310;21972;-63
2022/12/15 11:36:12;;;;;;;12.20;8.20;;;;;;;9.75;73.76;99919.77;105593;1298;21990;-67
2022/12/15 11:38:48;;;;;;;13.60;7.70;;;;;;;9.79;73.71;99917.95;105598;1307;21962;-62
2022/12/15 11:41:35;;;;;;;12.90;8.20;;;;;;;9.80;73.43;99917.77;105592;1309;21981;-63
2022/12/15 11:44:04;;;;;;;13.80;7.90;;;;;;;9.83;73.09;99914.58;105621;1311;21969;-68
2022/12/15 11:46:36;;;;;;;11.60;7.20;;;;;;;9.77;73.35;99917.65;105599;1309;21983;-64
2022/12/15 11:49:27;;;;;;;12.50;8.10;;;;;;;9.93;72.76;99916.16;105616;1306;21969;-69
2022/12/15 11:52:04;;;;;;;12.10;7.00;;;;;;;9.93;72.61;99916.67;105729;1307;21985;-68
2022/12/15 11:54:45;;;;;;;12.70;6.70;;;;;;;9.85;72.83;99915.94;105699;1311;21977;-67
2022/12/15 11:57:20;;;;;;;11.70;6.90;;;;;;;9.81;73.12;99917.40;105683;1310;21975;-63
2022/12/15 11:59:49;;;;;;;11.10;6.80;;;;;;;9.79;73.03;99917.78;105661;1310;21983;-64
2022/12/15 12:02:21;;;;;;;9.80;6.90;;;;;;;9.86;72.89;99913.30;105650;1309;21965;-63
2022/12/15 12:05:24;;;;;;;9.70;6.60;;;;;;;9.87;72.88;99915.02;105818;1309;21965;-68
2022/12/15 12:08:15;;;;;;;10.70;6.40;;;;;;;9.99;72.45;99914.14;104187;1308;1003183;-67
2022/12/15 12:11:23;;;;;;;9.70;6.20;;;;;;;10.10;72.01;99917.09;105646;1309;21963;-68
2022/12/15 12:14:42;;;;;;;8.70;5.90;;;;;;;10.15;71.93;99914.36;105586;1312;21971;-65
2022/12/15 12:17:35;;;;;;;9.30;5.90;;;;;;;10.06;72.31;99909.27;105323;1309;21981;-68
2022/12/15 12:20:04;;;;;;;10.90;6.60;;;;;;;10.04;72.33;99909.31;105632;1309;21970;-68
2022/12/15 12:22:38;;;;;;;9.60;6.30;;;;;;;10.04;72.18;99913.36;105696;1309;23722;-67
2022/12/15 12:25:11;;;;;;;11.80;7.20;;;;;;;10.06;72.12;99914.35;105630;1311;21968;-68
2022/12/15 12:27:48;;;;;;;11.80;6.60;;;;;;;10.10;72.06;99914.11;105676;1311;21969;-64
2022/12/15 12:30:19;;;;;;;8.20;5.40;;;;;;;10.22;71.75;99920.91;105640;1312;21966;-64
2022/12/15 12:32:47;;;;;;;9.60;5.70;;;;;;;10.18;71.76;99928.00;105659;1312;21972;-67
2022/12/15 12:35:41;;;;;;;9.10;5.80;;;;;;;10.29;71.52;99932.88;105613;1311;21967;-63
2022/12/15 12:38:11;;;;;;;10.60;6.00;;;;;;;10.53;70.60;99930.71;105659;1309;21980;-63
2022/12/15 12:40:39;;;;;;;9.40;6.20;;;;;;;10.40;70.61;99929.52;105682;1310;21962;-68
2022/12/15 12:43:08;;;;;;;9.40;5.90;;;;;;;10.40;70.61;99929.55;105637;1311;21975;-68
2022/12/15 12:45:47;;;;;;;9.40;5.80;;;;;;;10.38;70.44;99933.80;105712;1310;21965;-64
2022/12/15 12:48:17;;;;;;;8.60;5.50;;;;;;;10.47;70.10;99936.80;105644;1303;21967;-67
2022/12/15 12:50:43;;;;;;;8.60;5.90;;;;;;;10.52;69.83;99937.23;105656;1310;21988;-63
2022/12/15 12:53:24;;;;;;;11.10;5.60;;;;;;;10.49;69.82;99939.92;105632;1308;22009;-67
2022/12/15 12:55:49;;;;;;;;;;;;;;;10.53;69.67;99945.45;105617;1310;21950;-64
2022/12/15 12:58:36;;;;;;;14.20;6.10;;;;;;;10.54;69.57;99951.92;105619;1309;21977;-67
2022/12/15 13:01:04;;;;;;;10.30;6.60;;;;;;;10.47;69.81;99958.36;104925;1307;1002929;-67
2022/12/15 13:03:29;;;;;;;10.20;6.30;;;;;;;10.48;69.55;99965.19;105652;1311;21960;-67
2022/12/15 13:05:55;;;;;;;9.80;6.30;;;;;;;10.56;69.18;99971.54;105669;1309;21946;-67
2022/12/15 13:08:44;;;;;;;10.80;6.80;;;;;;;10.72;68.73;99977.38;105832;1301;21997;-67
2022/12/15 13:11:47;;;;;;;10.20;6.70;;;;;;;10.60;68.91;99982.70;105663;1308;22428;-64
2022/12/15 13:14:30;;;;;;;12.70;7.30;;;;;;;10.44;69.60;99991.21;105597;1308;21994;-65
2022/12/15 13:17:01;;;;;;;13.40;7.40;;;;;;;10.38;69.84;99992.71;105675;1310;21971;-64
2022/12/15 13:19:55;;;;;;;14.60;8.30;;;;;;;10.35;70.23;99987.14;105649;1312;21984;-63
2022/12/15 13:22:28;;;;;;;15.70;7.60;;;;;;;10.25;70.53;99990.12;105622;1308;21970;-65
2022/12/15 13:24:55;;;;;;;15.00;7.50;;;;;;;10.39;70.26;99991.30;105662;1307;21963;-64
2022/12/15 13:27:20;;;;;;;12.40;7.30;;;;;;;10.35;69.95;99998.55;105587;1308;22027;-64
2022/12/15 13:30:13;;;;;;;11.90;7.60;;;;;;;10.26;70.23;100005.02;105688;1308;22014;-63
2022/12/15 13:32:44;;;;;;;15.20;7.60;;;;;;;10.29;70.05;100005.30;105645;1311;21968;-63
2022/12/15 13:35:12;;;;;;;12.00;7.00;;;;;;;10.30;69.89;100003.02;105712;1311;21967;-66
2022/12/15 13:37:58;;;;;;;11.40;6.70;;;;;;;10.28;69.75;100004.98;105712;1308;21961;-63
2022/12/15 13:40:33;;;;;;;15.80;8.70;;;;;;;10.33;69.73;100012.61;105754;1307;21974;-63
2022/12/15 13:43:02;;;;;;;11.40;7.30;;;;;;;10.48;69.11;100013.43;105777;1312;22440;-63
2022/12/15 13:45:40;;;;;;;17.60;7.50;;;;;;;10.56;68.82;100009.80;105630;1309;21972;-65
2022/12/15 13:48:31;;;;;;;16.90;8.30;;;;;;;10.69;68.17;100018.15;105765;1308;22012;-64
2022/12/15 13:51:23;;;;;;;20.70;12.60;;;;;;;10.71;67.95;100021.09;105722;1311;22249;-63
2022/12/15 13:53:55;;;;;;;37.60;20.50;;;;;;;10.44;68.55;100023.31;105611;1307;21972;-63
2022/12/15 13:56:35;;;;;;;34.70;21.30;;;;;;;10.06;69.90;100030.92;105627;1312;22086;-63
2022/12/15 13:59:12;;;;;;;41.40;26.70;;;;;;;10.05;70.19;100039.36;105733;1307;21969;-63
2022/12/15 14:01:38;;;;;;;30.50;19.20;;;;;;;10.08;69.85;100043.52;105672;1307;21966;-63
2022/12/15 14:04:15;;;;;;;26.40;16.40;;;;;;;10.04;70.09;100050.41;105668;1312;23723;-63
2022/12/15 14:06:59;;;;;;;21.80;14.80;;;;;;;10.08;69.97;100059.83;105931;1305;21967;-64
2022/12/15 14:09:28;;;;;;;20.10;13.80;;;;;;;10.10;69.83;100062.61;105833;1308;21964;-64
2022/12/15 14:11:56;;;;;;;15.60;10.90;;;;;;;10.11;69.84;100063.13;105809;1311;21968;-64
2022/12/15 14:14:24;;;;;;;14.80;10.10;;;;;;;10.26;69.51;100066.91;105836;1307;21961;-63
2022/12/15 14:16:59;;;;;;;12.70;8.90;;;;;;;10.32;69.04;100065.23;105776;1307;22431;-63
2022/12/15 14:19:25;;;;;;;15.30;9.60;;;;;;;10.32;68.84;100070.49;105794;1307;21960;-64
2022/12/15 14:21:55;;;;;;;12.80;8.70;;;;;;;10.36;68.66;100075.69;105761;1309;21950;-64
2022/12/15 14:24:32;;;;;;;14.00;8.80;;;;;;;10.38;68.35;100077.25;105786;1307;22029;-64
2022/12/15 14:26:58;;;;;;;12.00;8.00;;;;;;;10.42;68.04;100084.23;105625;1312;21962;-64
2022/12/15 14:29:24;;;;;;;13.40;7.80;;;;;;;10.34;68.20;100084.86;105593;1307;21966;-65
2022/12/15 14:31:52;;;;;;;14.90;8.30;;;;;;;10.26;68.41;100089.36;105656;1307;22141;-64
2022/12/15 14:34:27;;;;;;;11.70;7.60;;;;;;;10.24;68.29;100085.70;105678;1305;21960;-64
2022/12/15 14:36:55;;;;;;;14.80;8.70;;;;;;;10.22;68.43;100082.74;105659;1312;21987;-65
2022/12/15 14:39:32;;;;;;;14.60;8.60;;;;;;;10.17;68.45;100079.67;105720;1312;23090;-64
2022/12/15 14:41:58;;;;;;;14.40;9.10;;;;;;;10.13;68.40;100084.65;105614;1309;23134;-64
2022/12/15 14:44:37;;;;;;;13.10;8.30;;;;;;;10.09;68.57;100084.52;105856;1302;21972;-66
2022/12/15 14:47:05;;;;;;;10.90;6.90;;;;;;;10.06;68.58;100084.05;105680;1312;23659;-64
2022/12/15 14:49:35;;;;;;;11.00;7.80;;;;;;;10.03;68.51;100090.92;105671;1308;21966;-65
2022/12/15 14:52:02;;;;;;;12.80;8.50;;;;;;;10.02;68.58;100095.33;105634;1311;22156;-65
2022/12/15 14:54:35;;;;;;;12.80;8.20;;;;;;;10.00;68.56;100102.54;105641;1312;23818;-66
2022/12/15 14:57:07;;;;;;;14.50;8.00;;;;;;;9.97;68.50;100105.38;105643;1307;21970;-64
2022/12/15 14:59:34;;;;;;;14.30;9.60;;;;;;;9.98;68.48;100108.87;105657;1310;21990;-65
2022/12/15 15:02:12;;;;;;;14.90;9.10;;;;;;;9.96;68.62;100114.68;105702;1311;21964;-65
2022/12/15 15:04:38;;;;;;;15.60;9.20;;;;;;;10.00;68.80;100128.48;105875;1307;21961;-64
2022/12/15 15:07:06;;;;;;;15.90;10.20;;;;;;;10.03;68.76;100135.46;105628;1308;22021;-64
2022/12/15 15:09:40;;;;;;;15.30;9.20;;;;;;;10.06;68.69;100141.89;105657;1308;21973;-65
2022/12/15 15:12:09;;;;;;;13.20;8.80;;;;;;;10.10;68.58;100150.44;105703;1298;21964;-66
2022/12/15 15:14:48;;;;;;;16.60;10.50;;;;;;;10.03;68.53;100150.71;105729;1298;23856;-65
2022/12/15 15:17:25;;;;;;;19.30;11.50;;;;;;;9.99;68.78;100152.51;105704;1309;22766;-65
2022/12/15 15:20:03;;;;;;;18.00;9.70;;;;;;;10.00;68.74;100149.87;104981;1308;1003006;-65
2022/12/15 15:22:36;;;;;;;14.20;9.00;;;;;;;10.00;68.53;100155.48;105710;1307;21987;-65
2022/12/15 15:25:50;;;;;;;13.90;9.20;;;;;;;9.98;68.58;100161.64;105608;1308;21965;-65
2022/12/15 15:28:16;;;;;;;14.60;8.50;;;;;;;9.97;68.58;100186.18;105147;1315;22020;-66
2022/12/15 15:30:52;;;;;;;14.60;9.30;;;;;;;9.89;68.34;100206.96;105562;1308;22018;-64
2022/12/15 15:33:18;;;;;;;11.70;8.20;;;;;;;9.78;68.43;100214.80;105675;1308;22858;-66
2022/12/15 15:35:48;;;;;;;12.50;8.00;;;;;;;9.66;68.82;100207.77;104850;1299;1003086;-66
2022/12/15 15:38:22;;;;;;;14.70;10.80;;;;;;;9.69;68.95;100203.72;105651;1309;23805;-66
2022/12/15 15:41:09;;;;;;;13.10;9.30;;;;;;;9.74;69.14;100203.98;105651;1294;21967;-64
2022/12/15 15:43:35;;;;;;;14.00;9.60;;;;;;;9.85;68.59;100209.48;105828;1309;21972;-65
2022/12/15 15:46:04;;;;;;;13.80;9.00;;;;;;;9.98;67.69;100210.73;105727;1309;22180;-64
2022/12/15 15:48:35;;;;;;;15.20;8.50;;;;;;;9.92;67.56;100213.95;105628;1309;21968;-64
2022/12/15 15:51:00;;;;;;;11.80;8.80;;;;;;;9.89;67.65;100215.73;105677;1309;21960;-65
2022/12/15 15:53:28;;;;;;;11.10;8.40;;;;;;;9.83;67.99;100216.17;105673;1309;21991;-66
2022/12/15 23:18:19;;;;;;;30.80;16.10;;;;;;;3.64;100.00;100725.20;104406;1307;1002258;-59
2022/12/15 23:20:46;;;;;;;26.90;15.20;;;;;;;6.00;98.31;100713.51;105512;1309;21981;-59
2022/12/15 23:23:12;;;;;;;27.40;15.30;;;;;;;6.48;91.65;100709.89;105500;1309;21983;-59
2022/12/15 23:25:37;;;;;;;30.70;16.70;;;;;;;6.82;88.03;100708.95;105495;1309;21969;-59
2022/12/15 23:28:04;;;;;;;26.70;14.20;;;;;;;7.09;85.94;100710.94;105519;1301;21985;-60
2022/12/15 23:30:29;;;;;;;26.10;14.90;;;;;;;7.23;84.59;100708.94;105375;1310;239402;-59
2022/12/15 23:32:56;;;;;;;26.40;14.60;;;;;;;7.43;83.49;100705.73;105717;1310;21968;-60
2022/12/15 23:35:22;;;;;;;23.70;14.50;;;;;;;7.53;82.68;100700.73;105757;1310;22052;-59
2022/12/15 23:37:48;;;;;;;21.90;12.90;;;;;;;7.73;81.51;100696.11;105705;1309;21951;-60
2022/12/15 23:40:20;;;;;;;22.50;13.50;;;;;;;7.78;80.65;100699.63;105672;1310;21965;-59
2022/12/15 23:42:49;;;;;;;20.00;12.80;;;;;;;7.79;80.19;100698.92;105697;1310;21950;-60
2022/12/15 23:45:15;;;;;;;18.00;12.20;;;;;;;7.64;80.77;100695.90;105709;1309;21972;-60
2022/12/15 23:47:41;;;;;;;17.20;11.50;;;;;;;7.84;80.53;100688.64;105662;1310;21985;-59
2022/12/15 23:50:07;;;;;;;13.50;10.10;;;;;;;8.02;79.70;100688.35;105693;1310;21960;-60
2022/12/15 23:52:33;;;;;;;13.60;9.20;;;;;;;8.24;78.73;100693.48;105776;1310;21967;-59
2022/12/15 23:54:59;;;;;;;14.80;8.90;;;;;;;8.42;77.75;100689.85;105711;1310;21971;-59
2022/12/15 23:57:26;;;;;;;12.80;8.20;;;;;;;8.24;78.06;100687.36;105643;1310;21964;-60
2022/12/15 23:59:52;;;;;;;12.50;7.70;;;;;;;8.17;78.55;100680.19;105678;1309;22008;-59
